sensor_id;sensor_type;location;lat;lon;timestamp;pressure;altitude;pressure_sealevel;temperature
12430;BMP280;6279;42.192;24.326;2023-11-19T00:01:34;98908.13;;;7.79
12430;BMP280;6279;42.192;24.326;2023-11-19T00:03:59;98922.72;;;7.80
12430;BMP280;6279;42.192;24.326;2023-11-19T00:06:25;98916.72;;;7.79
12430;BMP280;6279;42.192;24.326;2023-11-19T00:08:50;98903.94;;;7.78
12430;BMP280;6279;42.192;24.326;2023-11-19T00:11:16;98914.75;;;7.73
12430;BMP280;6279;42.192;24.326;2023-11-19T00:13:41;98920.72;;;7.74
12430;BMP280;6279;42.192;24.326;2023-11-19T00:16:07;98915.25;;;7.77
12430;BMP280;6279;42.192;24.326;2023-11-19T00:18:35;98920.44;;;7.77
12430;BMP280;6279;42.192;24.326;2023-11-19T00:21:01;98925.94;;;7.82
12430;BMP280;6279;42.192;24.326;2023-11-19T00:23:27;98925.78;;;7.83
12430;BMP280;6279;42.192;24.326;2023-11-19T00:25:52;98933.56;;;7.83
12430;BMP280;6279;42.192;24.326;2023-11-19T00:28:18;98947.31;;;7.84
12430;BMP280;6279;42.192;24.326;2023-11-19T00:30:43;98920.63;;;7.83
12430;BMP280;6279;42.192;24.326;2023-11-19T00:33:08;98934.69;;;7.81
12430;BMP280;6279;42.192;24.326;2023-11-19T00:35:34;98941.16;;;7.85
12430;BMP280;6279;42.192;24.326;2023-11-19T00:37:59;98939.56;;;7.84
12430;BMP280;6279;42.192;24.326;2023-11-19T00:40:25;98939.19;;;7.79
12430;BMP280;6279;42.192;24.326;2023-11-19T00:42:51;98946.16;;;7.78
12430;BMP280;6279;42.192;24.326;2023-11-19T00:45:16;98950.88;;;7.83
12430;BMP280;6279;42.192;24.326;2023-11-19T00:47:42;98940.81;;;7.80
12430;BMP280;6279;42.192;24.326;2023-11-19T00:50:09;98951.19;;;7.80
12430;BMP280;6279;42.192;24.326;2023-11-19T00:52:35;98942.44;;;7.81
12430;BMP280;6279;42.192;24.326;2023-11-19T00:55:02;98945.13;;;7.88
12430;BMP280;6279;42.192;24.326;2023-11-19T00:57:27;98939.72;;;7.82
12430;BMP280;6279;42.192;24.326;2023-11-19T00:59:52;98950.88;;;7.83
12430;BMP280;6279;42.192;24.326;2023-11-19T01:02:18;98953.03;;;7.87
12430;BMP280;6279;42.192;24.326;2023-11-19T01:04:43;98957.38;;;7.87
12430;BMP280;6279;42.192;24.326;2023-11-19T01:07:09;98959.59;;;7.82
12430;BMP280;6279;42.192;24.326;2023-11-19T01:09:38;98973.75;;;7.87
12430;BMP280;6279;42.192;24.326;2023-11-19T01:12:04;98963.06;;;7.90
12430;BMP280;6279;42.192;24.326;2023-11-19T01:14:30;98957.38;;;7.87
12430;BMP280;6279;42.192;24.326;2023-11-19T01:16:56;98954.13;;;7.85
12430;BMP280;6279;42.192;24.326;2023-11-19T01:19:22;98957.53;;;7.85
12430;BMP280;6279;42.192;24.326;2023-11-19T01:21:48;98943.75;;;7.85
12430;BMP280;6279;42.192;24.326;2023-11-19T01:24:14;98955.25;;;7.82
12430;BMP280;6279;42.192;24.326;2023-11-19T01:26:39;98956.03;;;7.83
12430;BMP280;6279;42.192;24.326;2023-11-19T01:29:11;98967.53;;;7.80
12430;BMP280;6279;42.192;24.326;2023-11-19T01:31:39;98965.09;;;7.79
12430;BMP280;6279;42.192;24.326;2023-11-19T01:34:04;98964.06;;;7.72
12430;BMP280;6279;42.192;24.326;2023-11-19T01:36:30;98964.06;;;7.72
12430;BMP280;6279;42.192;24.326;2023-11-19T01:38:55;98956.81;;;7.75
12430;BMP280;6279;42.192;24.326;2023-11-19T01:41:21;98961.41;;;7.64
12430;BMP280;6279;42.192;24.326;2023-11-19T01:43:46;98974.44;;;7.72
12430;BMP280;6279;42.192;24.326;2023-11-19T01:46:12;98977.59;;;7.66
12430;BMP280;6279;42.192;24.326;2023-11-19T01:48:42;98976.34;;;7.70
12430;BMP280;6279;42.192;24.326;2023-11-19T01:51:09;98984.16;;;7.78
12430;BMP280;6279;42.192;24.326;2023-11-19T01:53:36;98977.69;;;7.74
12430;BMP280;6279;42.192;24.326;2023-11-19T01:56:04;98974.72;;;7.69
12430;BMP280;6279;42.192;24.326;2023-11-19T01:58:30;98975.00;;;7.66
12430;BMP280;6279;42.192;24.326;2023-11-19T02:00:56;98982.13;;;7.64
12430;BMP280;6279;42.192;24.326;2023-11-19T02:03:22;98968.88;;;7.67
12430;BMP280;6279;42.192;24.326;2023-11-19T02:05:51;98978.25;;;7.68
12430;BMP280;6279;42.192;24.326;2023-11-19T02:08:16;98980.03;;;7.50
12430;BMP280;6279;42.192;24.326;2023-11-19T02:10:42;98979.13;;;7.51
12430;BMP280;6279;42.192;24.326;2023-11-19T02:13:08;98971.63;;;7.48
12430;BMP280;6279;42.192;24.326;2023-11-19T02:15:35;98968.22;;;7.48
12430;BMP280;6279;42.192;24.326;2023-11-19T02:18:19;98977.34;;;7.52
12430;BMP280;6279;42.192;24.326;2023-11-19T02:20:45;98971.94;;;7.45
12430;BMP280;6279;42.192;24.326;2023-11-19T02:23:12;98973.84;;;7.43
12430;BMP280;6279;42.192;24.326;2023-11-19T02:25:39;98973.56;;;7.46
12430;BMP280;6279;42.192;24.326;2023-11-19T02:28:05;98971.13;;;7.45
12430;BMP280;6279;42.192;24.326;2023-11-19T02:30:31;98963.81;;;7.41
12430;BMP280;6279;42.192;24.326;2023-11-19T02:33:00;98974.16;;;7.41
12430;BMP280;6279;42.192;24.326;2023-11-19T02:35:31;98977.09;;;7.45
12430;BMP280;6279;42.192;24.326;2023-11-19T02:37:58;98979.94;;;7.52
12430;BMP280;6279;42.192;24.326;2023-11-19T02:40:29;98991.00;;;7.44
12430;BMP280;6279;42.192;24.326;2023-11-19T02:42:54;98989.38;;;7.43
12430;BMP280;6279;42.192;24.326;2023-11-19T02:45:22;98983.31;;;7.35
12430;BMP280;6279;42.192;24.326;2023-11-19T02:47:48;98986.72;;;7.36
12430;BMP280;6279;42.192;24.326;2023-11-19T02:50:13;98977.03;;;7.38
12430;BMP280;6279;42.192;24.326;2023-11-19T02:52:42;98979.38;;;7.31
12430;BMP280;6279;42.192;24.326;2023-11-19T02:55:09;98968.16;;;7.23
12430;BMP280;6279;42.192;24.326;2023-11-19T02:57:37;98973.19;;;7.24
12430;BMP280;6279;42.192;24.326;2023-11-19T03:00:04;98972.22;;;7.25
12430;BMP280;6279;42.192;24.326;2023-11-19T03:02:41;98970.00;;;7.30
12430;BMP280;6279;42.192;24.326;2023-11-19T03:05:15;98971.47;;;7.33
12430;BMP280;6279;42.192;24.326;2023-11-19T03:07:42;98975.97;;;7.31
12430;BMP280;6279;42.192;24.326;2023-11-19T03:10:12;98982.13;;;7.30
12430;BMP280;6279;42.192;24.326;2023-11-19T03:12:39;98979.78;;;7.19
12430;BMP280;6279;42.192;24.326;2023-11-19T03:15:06;98978.97;;;7.19
12430;BMP280;6279;42.192;24.326;2023-11-19T03:17:32;98976.59;;;7.25
12430;BMP280;6279;42.192;24.326;2023-11-19T03:20:00;98986.78;;;7.26
12430;BMP280;6279;42.192;24.326;2023-11-19T03:22:26;98981.41;;;7.20
12430;BMP280;6279;42.192;24.326;2023-11-19T03:24:51;98990.13;;;7.19
12430;BMP280;6279;42.192;24.326;2023-11-19T03:27:17;98993.66;;;7.18
12430;BMP280;6279;42.192;24.326;2023-11-19T03:29:42;98987.81;;;7.16
12430;BMP280;6279;42.192;24.326;2023-11-19T03:32:08;99003.34;;;7.16
12430;BMP280;6279;42.192;24.326;2023-11-19T03:34:33;98999.94;;;7.16
12430;BMP280;6279;42.192;24.326;2023-11-19T03:36:59;99006.59;;;7.18
12430;BMP280;6279;42.192;24.326;2023-11-19T03:39:24;99007.56;;;7.17
12430;BMP280;6279;42.192;24.326;2023-11-19T03:41:50;99003.56;;;7.22
12430;BMP280;6279;42.192;24.326;2023-11-19T03:44:16;99004.66;;;7.20
12430;BMP280;6279;42.192;24.326;2023-11-19T03:46:42;99012.44;;;7.20
12430;BMP280;6279;42.192;24.326;2023-11-19T03:49:07;99013.00;;;7.14
12430;BMP280;6279;42.192;24.326;2023-11-19T03:51:33;99014.84;;;7.04
12430;BMP280;6279;42.192;24.326;2023-11-19T03:54:00;99019.03;;;7.05
12430;BMP280;6279;42.192;24.326;2023-11-19T03:56:26;99003.69;;;7.04
12430;BMP280;6279;42.192;24.326;2023-11-19T03:58:52;99022.88;;;7.01
12430;BMP280;6279;42.192;24.326;2023-11-19T04:01:17;99034.09;;;6.93
12430;BMP280;6279;42.192;24.326;2023-11-19T04:03:44;99036.56;;;6.85
12430;BMP280;6279;42.192;24.326;2023-11-19T04:06:09;99026.53;;;6.82
12430;BMP280;6279;42.192;24.326;2023-11-19T04:08:35;99045.72;;;6.79
12430;BMP280;6279;42.192;24.326;2023-11-19T04:11:02;99050.78;;;6.72
12430;BMP280;6279;42.192;24.326;2023-11-19T04:13:28;99052.47;;;6.63
12430;BMP280;6279;42.192;24.326;2023-11-19T04:15:53;99057.63;;;6.63
12430;BMP280;6279;42.192;24.326;2023-11-19T04:18:19;99053.28;;;6.64
12430;BMP280;6279;42.192;24.326;2023-11-19T04:20:44;99048.25;;;6.62
12430;BMP280;6279;42.192;24.326;2023-11-19T04:23:10;99053.13;;;6.65
12430;BMP280;6279;42.192;24.326;2023-11-19T04:25:36;99050.53;;;6.65
12430;BMP280;6279;42.192;24.326;2023-11-19T04:28:02;99054.09;;;6.64
12430;BMP280;6279;42.192;24.326;2023-11-19T04:30:28;99051.09;;;6.59
12430;BMP280;6279;42.192;24.326;2023-11-19T04:32:53;99056.66;;;6.64
12430;BMP280;6279;42.192;24.326;2023-11-19T04:35:19;99055.41;;;6.68
12430;BMP280;6279;42.192;24.326;2023-11-19T04:37:44;99058.69;;;6.61
12430;BMP280;6279;42.192;24.326;2023-11-19T04:40:10;99061.44;;;6.59
12430;BMP280;6279;42.192;24.326;2023-11-19T04:42:37;99054.50;;;6.60
12430;BMP280;6279;42.192;24.326;2023-11-19T04:45:06;99056.53;;;6.56
12430;BMP280;6279;42.192;24.326;2023-11-19T04:47:35;99053.44;;;6.53
12430;BMP280;6279;42.192;24.326;2023-11-19T04:50:00;99042.44;;;6.42
12430;BMP280;6279;42.192;24.326;2023-11-19T04:52:25;99053.63;;;6.33
12430;BMP280;6279;42.192;24.326;2023-11-19T04:54:51;99065.34;;;6.28
12430;BMP280;6279;42.192;24.326;2023-11-19T04:57:16;99062.09;;;6.16
12430;BMP280;6279;42.192;24.326;2023-11-19T04:59:42;99075.69;;;6.18
12430;BMP280;6279;42.192;24.326;2023-11-19T05:02:08;99060.91;;;6.11
12430;BMP280;6279;42.192;24.326;2023-11-19T05:04:33;99060.75;;;6.13
12430;BMP280;6279;42.192;24.326;2023-11-19T05:06:59;99057.88;;;6.15
12430;BMP280;6279;42.192;24.326;2023-11-19T05:09:24;99060.59;;;6.05
12430;BMP280;6279;42.192;24.326;2023-11-19T05:11:50;99057.22;;;6.04
12430;BMP280;6279;42.192;24.326;2023-11-19T05:14:15;99059.25;;;6.10
12430;BMP280;6279;42.192;24.326;2023-11-19T05:16:44;99066.59;;;6.14
12430;BMP280;6279;42.192;24.326;2023-11-19T05:19:10;99067.53;;;6.13
12430;BMP280;6279;42.192;24.326;2023-11-19T05:21:35;99075.16;;;6.06
12430;BMP280;6279;42.192;24.326;2023-11-19T05:24:04;99075.72;;;6.09
12430;BMP280;6279;42.192;24.326;2023-11-19T05:26:32;99088.03;;;6.06
12430;BMP280;6279;42.192;24.326;2023-11-19T05:28:57;99095.00;;;6.14
12430;BMP280;6279;42.192;24.326;2023-11-19T05:31:23;99091.69;;;6.22
12430;BMP280;6279;42.192;24.326;2023-11-19T05:33:48;99100.94;;;6.24
12430;BMP280;6279;42.192;24.326;2023-11-19T05:36:14;99106.63;;;6.37
12430;BMP280;6279;42.192;24.326;2023-11-19T05:38:39;99113.41;;;6.47
12430;BMP280;6279;42.192;24.326;2023-11-19T05:41:05;99120.75;;;6.52
12430;BMP280;6279;42.192;24.326;2023-11-19T05:43:31;99124.09;;;6.71
12430;BMP280;6279;42.192;24.326;2023-11-19T05:45:57;99120.13;;;6.76
12430;BMP280;6279;42.192;24.326;2023-11-19T05:48:22;99127.13;;;6.93
12430;BMP280;6279;42.192;24.326;2023-11-19T05:50:48;99126.00;;;7.04
12430;BMP280;6279;42.192;24.326;2023-11-19T05:53:15;99129.66;;;7.11
12430;BMP280;6279;42.192;24.326;2023-11-19T05:55:40;99115.44;;;7.24
12430;BMP280;6279;42.192;24.326;2023-11-19T05:58:14;99122.75;;;7.55
12430;BMP280;6279;42.192;24.326;2023-11-19T06:00:39;99115.03;;;8.24
12430;BMP280;6279;42.192;24.326;2023-11-19T06:03:07;99105.97;;;8.95
12430;BMP280;6279;42.192;24.326;2023-11-19T06:05:32;99096.63;;;8.76
12430;BMP280;6279;42.192;24.326;2023-11-19T06:07:58;99092.53;;;8.49
12430;BMP280;6279;42.192;24.326;2023-11-19T06:10:23;99105.56;;;8.15
12430;BMP280;6279;42.192;24.326;2023-11-19T06:12:55;99104.41;;;8.00
12430;BMP280;6279;42.192;24.326;2023-11-19T06:15:22;99113.97;;;7.83
12430;BMP280;6279;42.192;24.326;2023-11-19T06:17:47;99106.47;;;7.63
12430;BMP280;6279;42.192;24.326;2023-11-19T06:20:13;99117.28;;;7.58
12430;BMP280;6279;42.192;24.326;2023-11-19T06:22:39;99119.66;;;7.52
12430;BMP280;6279;42.192;24.326;2023-11-19T06:25:07;99130.53;;;7.55
12430;BMP280;6279;42.192;24.326;2023-11-19T06:27:33;99129.63;;;7.64
12430;BMP280;6279;42.192;24.326;2023-11-19T06:29:58;99139.69;;;7.84
12430;BMP280;6279;42.192;24.326;2023-11-19T06:32:24;99127.56;;;9.84
12430;BMP280;6279;42.192;24.326;2023-11-19T06:34:49;99125.91;;;12.64
12430;BMP280;6279;42.192;24.326;2023-11-19T06:37:15;99130.47;;;14.65
12430;BMP280;6279;42.192;24.326;2023-11-19T06:39:40;99121.84;;;16.10
12430;BMP280;6279;42.192;24.326;2023-11-19T06:42:06;99125.16;;;17.01
12430;BMP280;6279;42.192;24.326;2023-11-19T06:44:32;99119.50;;;17.73
12430;BMP280;6279;42.192;24.326;2023-11-19T06:46:58;99121.38;;;17.59
12430;BMP280;6279;42.192;24.326;2023-11-19T06:49:23;99108.09;;;17.42
12430;BMP280;6279;42.192;24.326;2023-11-19T06:51:49;99109.69;;;17.43
12430;BMP280;6279;42.192;24.326;2023-11-19T06:54:15;99123.88;;;17.85
12430;BMP280;6279;42.192;24.326;2023-11-19T06:56:41;99123.19;;;18.69
12430;BMP280;6279;42.192;24.326;2023-11-19T06:59:07;99133.66;;;19.23
12430;BMP280;6279;42.192;24.326;2023-11-19T07:01:36;99131.56;;;20.31
12430;BMP280;6279;42.192;24.326;2023-11-19T07:04:02;99129.34;;;19.99
12430;BMP280;6279;42.192;24.326;2023-11-19T07:06:34;99125.22;;;20.49
12430;BMP280;6279;42.192;24.326;2023-11-19T07:09:00;99138.06;;;20.46
12430;BMP280;6279;42.192;24.326;2023-11-19T07:11:27;99138.19;;;21.47
12430;BMP280;6279;42.192;24.326;2023-11-19T07:13:54;99137.38;;;21.24
12430;BMP280;6279;42.192;24.326;2023-11-19T07:16:19;99144.34;;;21.75
12430;BMP280;6279;42.192;24.326;2023-11-19T07:18:46;99141.75;;;21.64
12430;BMP280;6279;42.192;24.326;2023-11-19T07:21:15;99138.75;;;21.38
12430;BMP280;6279;42.192;24.326;2023-11-19T07:23:40;99145.25;;;21.80
12430;BMP280;6279;42.192;24.326;2023-11-19T07:26:06;99160.03;;;22.15
12430;BMP280;6279;42.192;24.326;2023-11-19T07:28:36;99158.31;;;22.64
12430;BMP280;6279;42.192;24.326;2023-11-19T07:31:01;99163.28;;;22.61
12430;BMP280;6279;42.192;24.326;2023-11-19T07:33:27;99163.25;;;22.44
12430;BMP280;6279;42.192;24.326;2023-11-19T07:35:53;99163.50;;;21.66
12430;BMP280;6279;42.192;24.326;2023-11-19T07:38:18;99166.69;;;21.11
12430;BMP280;6279;42.192;24.326;2023-11-19T07:40:43;99157.72;;;21.69
12430;BMP280;6279;42.192;24.326;2023-11-19T07:43:09;99158.44;;;21.53
12430;BMP280;6279;42.192;24.326;2023-11-19T07:45:34;99162.66;;;20.98
12430;BMP280;6279;42.192;24.326;2023-11-19T07:48:00;99168.16;;;20.45
12430;BMP280;6279;42.192;24.326;2023-11-19T07:50:26;99160.03;;;22.42
12430;BMP280;6279;42.192;24.326;2023-11-19T07:52:52;99161.06;;;22.69
12430;BMP280;6279;42.192;24.326;2023-11-19T07:55:18;99149.47;;;22.59
12430;BMP280;6279;42.192;24.326;2023-11-19T07:57:44;99148.44;;;23.24
12430;BMP280;6279;42.192;24.326;2023-11-19T08:00:10;99164.31;;;22.71
12430;BMP280;6279;42.192;24.326;2023-11-19T08:02:37;99174.09;;;22.86
12430;BMP280;6279;42.192;24.326;2023-11-19T08:05:04;99161.69;;;22.60
12430;BMP280;6279;42.192;24.326;2023-11-19T08:07:29;99167.09;;;21.98
12430;BMP280;6279;42.192;24.326;2023-11-19T08:09:54;99169.59;;;22.87
12430;BMP280;6279;42.192;24.326;2023-11-19T08:12:20;99155.81;;;23.92
12430;BMP280;6279;42.192;24.326;2023-11-19T08:14:45;99166.44;;;24.60
12430;BMP280;6279;42.192;24.326;2023-11-19T08:17:10;99174.03;;;24.46
12430;BMP280;6279;42.192;24.326;2023-11-19T08:19:36;99167.03;;;24.15
12430;BMP280;6279;42.192;24.326;2023-11-19T08:22:01;99170.28;;;23.26
12430;BMP280;6279;42.192;24.326;2023-11-19T08:24:27;99167.22;;;21.81
12430;BMP280;6279;42.192;24.326;2023-11-19T08:26:53;99160.69;;;21.72
12430;BMP280;6279;42.192;24.326;2023-11-19T08:29:19;99156.03;;;22.40
12430;BMP280;6279;42.192;24.326;2023-11-19T08:31:46;99153.66;;;21.77
12430;BMP280;6279;42.192;24.326;2023-11-19T08:34:11;99166.19;;;22.59
12430;BMP280;6279;42.192;24.326;2023-11-19T08:36:37;99161.28;;;22.95
12430;BMP280;6279;42.192;24.326;2023-11-19T08:39:03;99166.50;;;22.63
12430;BMP280;6279;42.192;24.326;2023-11-19T08:41:28;99161.56;;;23.30
12430;BMP280;6279;42.192;24.326;2023-11-19T08:43:54;99168.03;;;23.72
12430;BMP280;6279;42.192;24.326;2023-11-19T08:46:19;99175.88;;;22.81
12430;BMP280;6279;42.192;24.326;2023-11-19T08:48:45;99174.81;;;22.39
12430;BMP280;6279;42.192;24.326;2023-11-19T08:51:13;99180.13;;;21.77
12430;BMP280;6279;42.192;24.326;2023-11-19T08:53:41;99164.44;;;21.49
12430;BMP280;6279;42.192;24.326;2023-11-19T08:56:06;99161.44;;;22.18
12430;BMP280;6279;42.192;24.326;2023-11-19T08:58:32;99143.97;;;23.78
12430;BMP280;6279;42.192;24.326;2023-11-19T09:00:57;99151.09;;;24.41
12430;BMP280;6279;42.192;24.326;2023-11-19T09:03:23;99163.19;;;24.06
12430;BMP280;6279;42.192;24.326;2023-11-19T09:05:50;99171.19;;;23.69
12430;BMP280;6279;42.192;24.326;2023-11-19T09:08:16;99165.31;;;24.04
12430;BMP280;6279;42.192;24.326;2023-11-19T09:10:42;99182.00;;;23.62
12430;BMP280;6279;42.192;24.326;2023-11-19T09:13:07;99180.00;;;23.53
12430;BMP280;6279;42.192;24.326;2023-11-19T09:15:33;99175.44;;;23.70
12430;BMP280;6279;42.192;24.326;2023-11-19T09:17:58;99173.59;;;24.54
12430;BMP280;6279;42.192;24.326;2023-11-19T09:20:24;99164.41;;;24.41
12430;BMP280;6279;42.192;24.326;2023-11-19T09:22:49;99173.03;;;24.05
12430;BMP280;6279;42.192;24.326;2023-11-19T09:25:14;99174.19;;;23.24
12430;BMP280;6279;42.192;24.326;2023-11-19T09:27:44;99174.78;;;22.93
12430;BMP280;6279;42.192;24.326;2023-11-19T09:30:09;99164.13;;;23.58
12430;BMP280;6279;42.192;24.326;2023-11-19T09:32:35;99155.50;;;23.88
12430;BMP280;6279;42.192;24.326;2023-11-19T09:35:00;99141.78;;;24.38
12430;BMP280;6279;42.192;24.326;2023-11-19T09:37:26;99147.19;;;24.22
12430;BMP280;6279;42.192;24.326;2023-11-19T09:39:51;99158.66;;;23.64
12430;BMP280;6279;42.192;24.326;2023-11-19T09:42:18;99161.59;;;23.47
12430;BMP280;6279;42.192;24.326;2023-11-19T09:44:44;99160.34;;;23.54
12430;BMP280;6279;42.192;24.326;2023-11-19T09:47:11;99159.06;;;23.77
12430;BMP280;6279;42.192;24.326;2023-11-19T09:49:37;99169.97;;;23.60
12430;BMP280;6279;42.192;24.326;2023-11-19T09:52:03;99178.50;;;23.78
12430;BMP280;6279;42.192;24.326;2023-11-19T09:54:29;99174.69;;;24.32
12430;BMP280;6279;42.192;24.326;2023-11-19T09:56:57;99179.59;;;22.96
12430;BMP280;6279;42.192;24.326;2023-11-19T09:59:28;99179.28;;;22.93
12430;BMP280;6279;42.192;24.326;2023-11-19T10:01:54;99184.66;;;22.82
12430;BMP280;6279;42.192;24.326;2023-11-19T10:04:22;99168.16;;;21.98
12430;BMP280;6279;42.192;24.326;2023-11-19T10:06:47;99179.72;;;21.58
12430;BMP280;6279;42.192;24.326;2023-11-19T10:09:13;99168.53;;;21.67
12430;BMP280;6279;42.192;24.326;2023-11-19T10:11:40;99163.28;;;22.17
12430;BMP280;6279;42.192;24.326;2023-11-19T10:14:06;99162.88;;;20.96
12430;BMP280;6279;42.192;24.326;2023-11-19T10:16:34;99155.09;;;21.12
12430;BMP280;6279;42.192;24.326;2023-11-19T10:18:59;99153.94;;;21.53
12430;BMP280;6279;42.192;24.326;2023-11-19T10:21:25;99156.72;;;20.33
12430;BMP280;6279;42.192;24.326;2023-11-19T10:23:55;99171.41;;;19.41
12430;BMP280;6279;42.192;24.326;2023-11-19T10:26:22;99167.13;;;17.46
12430;BMP280;6279;42.192;24.326;2023-11-19T10:28:48;99156.22;;;16.28
12430;BMP280;6279;42.192;24.326;2023-11-19T10:31:15;99157.63;;;14.85
12430;BMP280;6279;42.192;24.326;2023-11-19T10:33:42;99142.75;;;14.44
12430;BMP280;6279;42.192;24.326;2023-11-19T10:36:11;99136.28;;;13.99
12430;BMP280;6279;42.192;24.326;2023-11-19T10:38:40;99145.50;;;13.67
12430;BMP280;6279;42.192;24.326;2023-11-19T10:41:06;99138.34;;;13.26
12430;BMP280;6279;42.192;24.326;2023-11-19T10:43:42;99135.19;;;13.45
12430;BMP280;6279;42.192;24.326;2023-11-19T10:46:14;99134.13;;;13.25
12430;BMP280;6279;42.192;24.326;2023-11-19T10:48:40;99130.06;;;13.09
12430;BMP280;6279;42.192;24.326;2023-11-19T10:51:06;99130.06;;;13.09
12430;BMP280;6279;42.192;24.326;2023-11-19T10:53:37;99122.38;;;13.21
12430;BMP280;6279;42.192;24.326;2023-11-19T10:56:06;99110.41;;;12.84
12430;BMP280;6279;42.192;24.326;2023-11-19T10:58:36;99103.06;;;12.88
12430;BMP280;6279;42.192;24.326;2023-11-19T11:01:13;99105.81;;;12.86
12430;BMP280;6279;42.192;24.326;2023-11-19T11:03:40;99106.69;;;12.43
12430;BMP280;6279;42.192;24.326;2023-11-19T11:06:06;99114.44;;;12.50
12430;BMP280;6279;42.192;24.326;2023-11-19T11:08:32;99109.72;;;12.32
12430;BMP280;6279;42.192;24.326;2023-11-19T11:10:59;99107.09;;;12.18
12430;BMP280;6279;42.192;24.326;2023-11-19T11:13:25;99115.22;;;12.15
12430;BMP280;6279;42.192;24.326;2023-11-19T11:15:55;99111.94;;;12.21
12430;BMP280;6279;42.192;24.326;2023-11-19T11:18:23;99113.44;;;11.93
12430;BMP280;6279;42.192;24.326;2023-11-19T11:21:14;99101.53;;;11.99
12430;BMP280;6279;42.192;24.326;2023-11-19T11:29:21;99095.59;;;11.83
12430;BMP280;6279;42.192;24.326;2023-11-19T11:37:39;99094.22;;;11.35
12430;BMP280;6279;42.192;24.326;2023-11-19T11:40:14;99079.66;;;11.10
12430;BMP280;6279;42.192;24.326;2023-11-19T11:42:41;99079.34;;;11.05
12430;BMP280;6279;42.192;24.326;2023-11-19T11:45:08;99090.56;;;11.06
12430;BMP280;6279;42.192;24.326;2023-11-19T11:50:18;99076.09;;;11.03
12430;BMP280;6279;42.192;24.326;2023-11-19T11:55:28;99075.13;;;11.04
12430;BMP280;6279;42.192;24.326;2023-11-19T11:57:55;99081.00;;;10.98
12430;BMP280;6279;42.192;24.326;2023-11-19T12:00:36;99073.97;;;11.07
12430;BMP280;6279;42.192;24.326;2023-11-19T12:03:06;99067.63;;;11.09
12430;BMP280;6279;42.192;24.326;2023-11-19T12:05:41;99076.78;;;10.97
12430;BMP280;6279;42.192;24.326;2023-11-19T12:08:07;99070.78;;;10.89
12430;BMP280;6279;42.192;24.326;2023-11-19T12:10:50;99064.03;;;10.65
12430;BMP280;6279;42.192;24.326;2023-11-19T12:13:16;99056.56;;;10.54
12430;BMP280;6279;42.192;24.326;2023-11-19T12:18:26;99060.66;;;10.56
12430;BMP280;6279;42.192;24.326;2023-11-19T12:20:51;99055.44;;;10.49
12430;BMP280;6279;42.192;24.326;2023-11-19T12:23:17;99057.56;;;10.45
12430;BMP280;6279;42.192;24.326;2023-11-19T12:25:42;99061.94;;;10.52
12430;BMP280;6279;42.192;24.326;2023-11-19T12:28:14;99059.50;;;10.59
12430;BMP280;6279;42.192;24.326;2023-11-19T12:30:42;99051.69;;;10.59
12430;BMP280;6279;42.192;24.326;2023-11-19T12:33:10;99048.91;;;10.52
12430;BMP280;6279;42.192;24.326;2023-11-19T12:35:40;99053.81;;;10.48
12430;BMP280;6279;42.192;24.326;2023-11-19T12:38:05;99053.00;;;10.47
12430;BMP280;6279;42.192;24.326;2023-11-19T12:40:31;99060.81;;;10.55
12430;BMP280;6279;42.192;24.326;2023-11-19T12:42:57;99036.91;;;10.51
12430;BMP280;6279;42.192;24.326;2023-11-19T12:45:22;99041.00;;;10.38
12430;BMP280;6279;42.192;24.326;2023-11-19T12:47:49;99035.47;;;10.41
12430;BMP280;6279;42.192;24.326;2023-11-19T12:50:17;99032.53;;;10.44
12430;BMP280;6279;42.192;24.326;2023-11-19T12:52:55;99039.66;;;10.50
12430;BMP280;6279;42.192;24.326;2023-11-19T12:55:30;99034.16;;;10.45
12430;BMP280;6279;42.192;24.326;2023-11-19T12:57:57;99021.66;;;10.41
12430;BMP280;6279;42.192;24.326;2023-11-19T13:00:25;99021.03;;;10.39
12430;BMP280;6279;42.192;24.326;2023-11-19T13:02:57;99012.28;;;10.24
12430;BMP280;6279;42.192;24.326;2023-11-19T13:05:33;99005.13;;;10.18
12430;BMP280;6279;42.192;24.326;2023-11-19T13:10:24;98994.72;;;10.26
12430;BMP280;6279;42.192;24.326;2023-11-19T13:15:26;99002.19;;;10.29
12430;BMP280;6279;42.192;24.326;2023-11-19T13:17:52;98987.72;;;10.27
12430;BMP280;6279;42.192;24.326;2023-11-19T13:20:18;98985.94;;;10.27
12430;BMP280;6279;42.192;24.326;2023-11-19T13:23:00;98986.28;;;10.24
12430;BMP280;6279;42.192;24.326;2023-11-19T13:25:26;98987.59;;;10.20
12430;BMP280;6279;42.192;24.326;2023-11-19T13:27:52;98986.78;;;10.20
12430;BMP280;6279;42.192;24.326;2023-11-19T13:30:17;98992.94;;;10.19
12430;BMP280;6279;42.192;24.326;2023-11-19T13:32:44;98984.81;;;10.29
12430;BMP280;6279;42.192;24.326;2023-11-19T13:35:11;98979.63;;;10.22
12430;BMP280;6279;42.192;24.326;2023-11-19T13:37:36;98981.25;;;10.15
12430;BMP280;6279;42.192;24.326;2023-11-19T13:40:02;98980.28;;;10.16
12430;BMP280;6279;42.192;24.326;2023-11-19T13:42:28;98978.19;;;10.11
12430;BMP280;6279;42.192;24.326;2023-11-19T13:44:53;98981.94;;;10.01
12430;BMP280;6279;42.192;24.326;2023-11-19T13:47:20;98969.09;;;9.92
12430;BMP280;6279;42.192;24.326;2023-11-19T13:49:48;98961.97;;;9.86
12430;BMP280;6279;42.192;24.326;2023-11-19T13:52:13;98958.75;;;9.84
12430;BMP280;6279;42.192;24.326;2023-11-19T13:54:38;98962.47;;;9.89
12430;BMP280;6279;42.192;24.326;2023-11-19T13:57:05;98960.97;;;9.79
12430;BMP280;6279;42.192;24.326;2023-11-19T13:59:31;98954.16;;;9.78
12430;BMP280;6279;42.192;24.326;2023-11-19T14:01:59;98962.28;;;9.75
12430;BMP280;6279;42.192;24.326;2023-11-19T14:04:24;98962.59;;;9.72
12430;BMP280;6279;42.192;24.326;2023-11-19T14:06:50;98970.06;;;9.60
12430;BMP280;6279;42.192;24.326;2023-11-19T14:09:16;98965.84;;;9.51
12430;BMP280;6279;42.192;24.326;2023-11-19T14:11:41;98964.53;;;9.47
12430;BMP280;6279;42.192;24.326;2023-11-19T14:14:07;98959.16;;;9.41
12430;BMP280;6279;42.192;24.326;2023-11-19T14:16:33;98966.47;;;9.37
12430;BMP280;6279;42.192;24.326;2023-11-19T14:18:59;98961.78;;;9.33
12430;BMP280;6279;42.192;24.326;2023-11-19T14:21:25;98958.97;;;9.26
12430;BMP280;6279;42.192;24.326;2023-11-19T14:23:52;98953.78;;;9.19
12430;BMP280;6279;42.192;24.326;2023-11-19T14:26:17;98965.16;;;9.25
12430;BMP280;6279;42.192;24.326;2023-11-19T14:28:43;98958.50;;;9.23
12430;BMP280;6279;42.192;24.326;2023-11-19T14:31:08;98958.50;;;9.15
12430;BMP280;6279;42.192;24.326;2023-11-19T14:33:34;98961.22;;;9.06
12430;BMP280;6279;42.192;24.326;2023-11-19T14:36:01;98975.81;;;9.07
12430;BMP280;6279;42.192;24.326;2023-11-19T14:38:27;98977.25;;;9.01